This is the latest recevied weather packets stored in our database for station/object HP1PAR-14. If no packets are shown the sender has not sent any weather packets the latest 10 day(s).
| Time | Temp. | Humidity | Pressure | Rain* | Wind** | Luminosity | Snow |
|---|---|---|---|---|---|---|---|
| 1788135750 | 20.56° C | 98% | 1011.2 hPa | 0 mm | - | - | - |
| 1788135218 | 21.11° C | 92% | 1011 hPa | 0 mm | - | - | - |
| 1788134801 | 21.11° C | 92% | 1011.2 hPa | 0 mm | - | - | - |
| 1788134441 | 21.11° C | 92% | 1011.2 hPa | 0 mm | - | - | - |
| 1788134134 | 21.11° C | 91% | 1011 hPa | 0 mm | - | - | - |
| 1788133651 | 21.11° C | 91% | 1011 hPa | 0 mm | - | - | - |
| 1788132848 | 21.11° C | 91% | 1010.8 hPa | 0 mm | - | - | - |
| 1788131851 | 21.67° C | 90% | 1010.6 hPa | 0 mm | - | - | - |
| 1788131739 | 21.67° C | 90% | 1010.6 hPa | 0 mm | - | - | - |
| 1788129939 | 21.67° C | 88% | 1010.1 hPa | 0 mm | - | - | - |
| 1788128138 | 22.22° C | 86% | 1009.6 hPa | 0 mm | - | - | - |
| 1788126338 | 22.78° C | 83% | 1009.3 hPa | 0 mm | - | - | - |
| 1788124537 | 23.33° C | 82% | 1009.2 hPa | 0 mm | - | - | - |
| 1788122737 | 23.33° C | 82% | 1009.3 hPa | 0 mm | - | - | - |
| 1788120936 | 23.33° C | 83% | 1009.6 hPa | 0 mm | - | - | - |
| 1788119136 | 23.33° C | 82% | 1009.8 hPa | 0 mm | - | - | - |
| 1788117335 | 23.89° C | 82% | 1010.5 hPa | 0 mm | - | - | - |
| 1788115535 | 23.89° C | 80% | 1011.1 hPa | 0 mm | - | - | - |
| 1788113734 | 23.33° C | 84% | 1011.9 hPa | 0 mm | - | - | - |
| 1788113380 | 23.33° C | 83% | 1012.3 hPa | 0 mm | - | - | - |
| 1788112184 | 23.33° C | 81% | 1012.6 hPa | 0 mm | - | - | - |
| 1788110384 | 24.44° C | 75% | 1012.9 hPa | 0 mm | - | - | - |
| 1788108583 | 24.44° C | 73% | 1013.1 hPa | 0 mm | - | - | - |
| 1788106783 | 23.89° C | 76% | 1013.1 hPa | 0 mm | - | - | - |
| 1788104982 | 23.33° C | 80% | 1012.9 hPa | 0 mm | - | - | - |
* Rain latest hour (hover to see other rain measurements)
** Current wind speed in m/s (hover to see current wind gust speed)